sensor_id;sensor_type;location;lat;lon;timestamp;P1;durP1;ratioP1;P2;durP2;ratioP2
35418;SDS011;21525;41.240;16.500;2023-09-19T00:00:30;25.77;;;8.68;;
35418;SDS011;21525;41.240;16.500;2023-09-19T00:05:25;28.30;;;9.80;;
35418;SDS011;21525;41.240;16.500;2023-09-19T00:07:53;28.30;;;9.07;;
35418;SDS011;21525;41.240;16.500;2023-09-19T00:10:21;20.75;;;8.93;;
35418;SDS011;21525;41.240;16.500;2023-09-19T00:12:50;24.98;;;9.20;;
35418;SDS011;21525;41.240;16.500;2023-09-19T00:15:18;28.90;;;9.07;;
35418;SDS011;21525;41.240;16.500;2023-09-19T00:17:44;24.73;;;9.30;;
35418;SDS011;21525;41.240;16.500;2023-09-19T00:20:10;25.00;;;9.02;;
35418;SDS011;21525;41.240;16.500;2023-09-19T00:22:41;20.55;;;8.82;;
35418;SDS011;21525;41.240;16.500;2023-09-19T00:25:10;22.02;;;8.60;;
35418;SDS011;21525;41.240;16.500;2023-09-19T00:27:37;22.33;;;8.85;;
35418;SDS011;21525;41.240;16.500;2023-09-19T00:30:08;24.65;;;8.60;;
35418;SDS011;21525;41.240;16.500;2023-09-19T00:32:40;28.35;;;8.40;;
35418;SDS011;21525;41.240;16.500;2023-09-19T00:35:06;22.67;;;9.18;;
35418;SDS011;21525;41.240;16.500;2023-09-19T00:37:36;26.85;;;8.70;;
35418;SDS011;21525;41.240;16.500;2023-09-19T00:40:03;24.98;;;9.70;;
35418;SDS011;21525;41.240;16.500;2023-09-19T00:42:31;29.27;;;9.80;;
35418;SDS011;21525;41.240;16.500;2023-09-19T00:44:59;25.23;;;9.57;;
35418;SDS011;21525;41.240;16.500;2023-09-19T00:47:29;19.65;;;8.68;;
35418;SDS011;21525;41.240;16.500;2023-09-19T00:49:55;25.08;;;9.50;;
35418;SDS011;21525;41.240;16.500;2023-09-19T00:52:22;24.23;;;9.25;;
35418;SDS011;21525;41.240;16.500;2023-09-19T00:54:49;23.98;;;9.98;;
35418;SDS011;21525;41.240;16.500;2023-09-19T00:57:15;23.95;;;9.13;;
35418;SDS011;21525;41.240;16.500;2023-09-19T00:59:44;26.98;;;9.38;;
35418;SDS011;21525;41.240;16.500;2023-09-19T01:02:12;27.80;;;9.50;;
35418;SDS011;21525;41.240;16.500;2023-09-19T01:04:40;23.42;;;9.57;;
35418;SDS011;21525;41.240;16.500;2023-09-19T01:07:06;22.45;;;9.85;;
35418;SDS011;21525;41.240;16.500;2023-09-19T01:09:33;20.52;;;9.63;;
35418;SDS011;21525;41.240;16.500;2023-09-19T01:12:01;22.15;;;9.10;;
35418;SDS011;21525;41.240;16.500;2023-09-19T01:18:00;23.27;;;9.60;;
35418;SDS011;21525;41.240;16.500;2023-09-19T01:23:21;22.95;;;9.40;;
35418;SDS011;21525;41.240;16.500;2023-09-19T01:31:39;23.33;;;10.35;;
35418;SDS011;21525;41.240;16.500;2023-09-19T01:34:08;21.08;;;9.00;;
35418;SDS011;21525;41.240;16.500;2023-09-19T01:36:35;22.33;;;9.30;;
35418;SDS011;21525;41.240;16.500;2023-09-19T01:39:10;22.50;;;11.68;;
35418;SDS011;21525;41.240;16.500;2023-09-19T01:47:19;24.13;;;10.40;;
35418;SDS011;21525;41.240;16.500;2023-09-19T01:49:55;18.77;;;9.80;;
35418;SDS011;21525;41.240;16.500;2023-09-19T01:52:27;23.95;;;11.60;;
35418;SDS011;21525;41.240;16.500;2023-09-19T01:55:01;19.52;;;11.13;;
35418;SDS011;21525;41.240;16.500;2023-09-19T01:57:34;22.17;;;12.48;;
35418;SDS011;21525;41.240;16.500;2023-09-19T02:00:06;23.73;;;13.88;;
35418;SDS011;21525;41.240;16.500;2023-09-19T02:02:42;27.60;;;13.68;;
35418;SDS011;21525;41.240;16.500;2023-09-19T02:05:12;23.38;;;11.50;;
35418;SDS011;21525;41.240;16.500;2023-09-19T02:07:39;25.67;;;10.98;;
35418;SDS011;21525;41.240;16.500;2023-09-19T02:10:06;24.88;;;11.85;;
35418;SDS011;21525;41.240;16.500;2023-09-19T02:12:33;18.00;;;11.20;;
35418;SDS011;21525;41.240;16.500;2023-09-19T02:15:02;23.30;;;10.57;;
35418;SDS011;21525;41.240;16.500;2023-09-19T02:17:29;25.05;;;11.48;;
35418;SDS011;21525;41.240;16.500;2023-09-19T02:19:57;18.73;;;10.52;;
35418;SDS011;21525;41.240;16.500;2023-09-19T02:22:24;24.83;;;11.30;;
35418;SDS011;21525;41.240;16.500;2023-09-19T02:24:50;20.02;;;10.48;;
35418;SDS011;21525;41.240;16.500;2023-09-19T02:27:16;18.80;;;10.85;;
35418;SDS011;21525;41.240;16.500;2023-09-19T02:29:44;20.25;;;9.88;;
35418;SDS011;21525;41.240;16.500;2023-09-19T02:32:10;22.00;;;10.68;;
35418;SDS011;21525;41.240;16.500;2023-09-19T02:34:36;20.73;;;9.68;;
35418;SDS011;21525;41.240;16.500;2023-09-19T02:37:07;19.65;;;9.55;;
35418;SDS011;21525;41.240;16.500;2023-09-19T02:39:34;21.20;;;9.63;;
35418;SDS011;21525;41.240;16.500;2023-09-19T02:42:01;20.02;;;8.60;;
35418;SDS011;21525;41.240;16.500;2023-09-19T02:44:27;18.30;;;9.48;;
35418;SDS011;21525;41.240;16.500;2023-09-19T02:46:52;19.58;;;8.90;;
35418;SDS011;21525;41.240;16.500;2023-09-19T02:49:18;15.52;;;8.45;;
35418;SDS011;21525;41.240;16.500;2023-09-19T02:51:44;16.17;;;8.45;;
35418;SDS011;21525;41.240;16.500;2023-09-19T02:54:11;21.63;;;9.13;;
35418;SDS011;21525;41.240;16.500;2023-09-19T02:56:37;21.92;;;9.00;;
35418;SDS011;21525;41.240;16.500;2023-09-19T02:59:03;25.52;;;8.77;;
35418;SDS011;21525;41.240;16.500;2023-09-19T03:01:29;20.27;;;8.75;;
35418;SDS011;21525;41.240;16.500;2023-09-19T03:03:55;21.80;;;8.48;;
35418;SDS011;21525;41.240;16.500;2023-09-19T03:06:21;16.63;;;8.75;;
35418;SDS011;21525;41.240;16.500;2023-09-19T03:08:47;19.55;;;9.15;;
35418;SDS011;21525;41.240;16.500;2023-09-19T03:11:15;20.73;;;9.40;;
35418;SDS011;21525;41.240;16.500;2023-09-19T03:13:45;19.90;;;8.25;;
35418;SDS011;21525;41.240;16.500;2023-09-19T03:16:11;18.15;;;8.77;;
35418;SDS011;21525;41.240;16.500;2023-09-19T03:18:40;20.02;;;7.95;;
35418;SDS011;21525;41.240;16.500;2023-09-19T03:21:06;19.48;;;8.55;;
35418;SDS011;21525;41.240;16.500;2023-09-19T03:23:31;20.45;;;8.13;;
35418;SDS011;21525;41.240;16.500;2023-09-19T03:25:57;22.00;;;9.05;;
35418;SDS011;21525;41.240;16.500;2023-09-19T03:28:24;23.52;;;9.25;;
35418;SDS011;21525;41.240;16.500;2023-09-19T03:30:58;18.23;;;8.30;;
35418;SDS011;21525;41.240;16.500;2023-09-19T03:33:29;24.08;;;8.80;;
35418;SDS011;21525;41.240;16.500;2023-09-19T03:36:00;18.27;;;8.60;;
35418;SDS011;21525;41.240;16.500;2023-09-19T03:38:30;22.55;;;9.07;;
35418;SDS011;21525;41.240;16.500;2023-09-19T03:40:56;23.40;;;8.98;;
35418;SDS011;21525;41.240;16.500;2023-09-19T03:43:22;20.48;;;8.73;;
35418;SDS011;21525;41.240;16.500;2023-09-19T03:45:48;22.25;;;9.13;;
35418;SDS011;21525;41.240;16.500;2023-09-19T03:48:14;21.63;;;11.27;;
35418;SDS011;21525;41.240;16.500;2023-09-19T03:50:40;70.50;;;38.35;;
35418;SDS011;21525;41.240;16.500;2023-09-19T03:53:06;54.33;;;27.00;;
35418;SDS011;21525;41.240;16.500;2023-09-19T03:55:33;43.28;;;21.90;;
35418;SDS011;21525;41.240;16.500;2023-09-19T03:58:04;41.40;;;22.95;;
35418;SDS011;21525;41.240;16.500;2023-09-19T04:00:31;44.85;;;23.45;;
35418;SDS011;21525;41.240;16.500;2023-09-19T04:02:58;44.50;;;24.25;;
35418;SDS011;21525;41.240;16.500;2023-09-19T04:05:24;45.33;;;23.42;;
35418;SDS011;21525;41.240;16.500;2023-09-19T04:07:50;47.65;;;26.67;;
35418;SDS011;21525;41.240;16.500;2023-09-19T04:10:16;57.83;;;30.00;;
35418;SDS011;21525;41.240;16.500;2023-09-19T04:12:52;47.83;;;29.55;;
35418;SDS011;21525;41.240;16.500;2023-09-19T04:15:19;59.30;;;34.17;;
35418;SDS011;21525;41.240;16.500;2023-09-19T04:17:45;66.45;;;36.90;;
35418;SDS011;21525;41.240;16.500;2023-09-19T04:20:10;66.32;;;38.42;;
35418;SDS011;21525;41.240;16.500;2023-09-19T04:22:38;83.30;;;50.00;;
35418;SDS011;21525;41.240;16.500;2023-09-19T04:25:05;87.55;;;48.50;;
35418;SDS011;21525;41.240;16.500;2023-09-19T04:27:32;78.50;;;43.33;;
35418;SDS011;21525;41.240;16.500;2023-09-19T04:29:58;77.28;;;45.70;;
35418;SDS011;21525;41.240;16.500;2023-09-19T04:32:28;78.20;;;42.15;;
35418;SDS011;21525;41.240;16.500;2023-09-19T04:34:54;57.00;;;30.55;;
35418;SDS011;21525;41.240;16.500;2023-09-19T04:37:20;43.05;;;21.02;;
35418;SDS011;21525;41.240;16.500;2023-09-19T04:39:47;45.92;;;26.67;;
35418;SDS011;21525;41.240;16.500;2023-09-19T04:42:13;39.97;;;21.70;;
35418;SDS011;21525;41.240;16.500;2023-09-19T04:44:41;45.08;;;18.02;;
35418;SDS011;21525;41.240;16.500;2023-09-19T04:47:08;37.33;;;17.35;;
35418;SDS011;21525;41.240;16.500;2023-09-19T04:49:33;30.80;;;13.43;;
35418;SDS011;21525;41.240;16.500;2023-09-19T04:52:00;28.17;;;12.88;;
35418;SDS011;21525;41.240;16.500;2023-09-19T04:54:26;24.92;;;11.95;;
35418;SDS011;21525;41.240;16.500;2023-09-19T04:56:52;26.08;;;11.40;;
35418;SDS011;21525;41.240;16.500;2023-09-19T04:59:18;29.13;;;12.73;;
35418;SDS011;21525;41.240;16.500;2023-09-19T05:01:44;31.35;;;13.05;;
35418;SDS011;21525;41.240;16.500;2023-09-19T05:04:10;24.40;;;11.80;;
35418;SDS011;21525;41.240;16.500;2023-09-19T05:06:35;26.48;;;11.73;;
35418;SDS011;21525;41.240;16.500;2023-09-19T05:09:01;24.73;;;10.05;;
35418;SDS011;21525;41.240;16.500;2023-09-19T05:11:30;28.13;;;11.15;;
35418;SDS011;21525;41.240;16.500;2023-09-19T05:13:56;33.90;;;12.13;;
35418;SDS011;21525;41.240;16.500;2023-09-19T05:16:21;22.45;;;9.07;;
35418;SDS011;21525;41.240;16.500;2023-09-19T05:18:47;26.50;;;10.18;;
35418;SDS011;21525;41.240;16.500;2023-09-19T05:21:15;26.67;;;9.85;;
35418;SDS011;21525;41.240;16.500;2023-09-19T05:23:40;35.40;;;12.98;;
35418;SDS011;21525;41.240;16.500;2023-09-19T05:26:06;30.75;;;12.07;;
35418;SDS011;21525;41.240;16.500;2023-09-19T05:28:32;38.13;;;12.55;;
35418;SDS011;21525;41.240;16.500;2023-09-19T05:31:03;29.60;;;12.52;;
35418;SDS011;21525;41.240;16.500;2023-09-19T05:33:28;27.23;;;12.48;;
35418;SDS011;21525;41.240;16.500;2023-09-19T05:35:56;24.98;;;10.63;;
35418;SDS011;21525;41.240;16.500;2023-09-19T05:38:22;21.02;;;8.48;;
35418;SDS011;21525;41.240;16.500;2023-09-19T05:40:48;30.02;;;10.88;;
35418;SDS011;21525;41.240;16.500;2023-09-19T05:43:13;27.05;;;10.38;;
35418;SDS011;21525;41.240;16.500;2023-09-19T05:45:40;29.92;;;11.50;;
35418;SDS011;21525;41.240;16.500;2023-09-19T05:48:10;30.63;;;11.05;;
35418;SDS011;21525;41.240;16.500;2023-09-19T05:50:38;28.88;;;12.82;;
35418;SDS011;21525;41.240;16.500;2023-09-19T05:53:05;30.10;;;12.98;;
35418;SDS011;21525;41.240;16.500;2023-09-19T05:55:31;31.27;;;13.73;;
35418;SDS011;21525;41.240;16.500;2023-09-19T05:57:57;40.20;;;14.07;;
35418;SDS011;21525;41.240;16.500;2023-09-19T06:00:23;34.38;;;14.15;;
35418;SDS011;21525;41.240;16.500;2023-09-19T06:02:53;42.10;;;18.73;;
35418;SDS011;21525;41.240;16.500;2023-09-19T06:05:19;25.95;;;11.38;;
35418;SDS011;21525;41.240;16.500;2023-09-19T06:07:47;39.28;;;14.73;;
35418;SDS011;21525;41.240;16.500;2023-09-19T06:10:13;30.17;;;12.82;;
35418;SDS011;21525;41.240;16.500;2023-09-19T06:12:43;43.50;;;15.23;;
35418;SDS011;21525;41.240;16.500;2023-09-19T06:15:14;32.72;;;12.70;;
35418;SDS011;21525;41.240;16.500;2023-09-19T06:17:47;29.88;;;12.90;;
35418;SDS011;21525;41.240;16.500;2023-09-19T06:20:14;28.20;;;13.25;;
35418;SDS011;21525;41.240;16.500;2023-09-19T06:22:44;30.80;;;13.48;;
35418;SDS011;21525;41.240;16.500;2023-09-19T06:25:10;28.67;;;13.45;;
35418;SDS011;21525;41.240;16.500;2023-09-19T06:27:38;35.75;;;14.05;;
35418;SDS011;21525;41.240;16.500;2023-09-19T06:30:07;33.70;;;15.13;;
35418;SDS011;21525;41.240;16.500;2023-09-19T06:32:34;32.25;;;14.27;;
35418;SDS011;21525;41.240;16.500;2023-09-19T06:35:00;32.30;;;14.30;;
35418;SDS011;21525;41.240;16.500;2023-09-19T06:37:27;29.00;;;14.05;;
35418;SDS011;21525;41.240;16.500;2023-09-19T06:39:53;36.63;;;13.35;;
35418;SDS011;21525;41.240;16.500;2023-09-19T06:42:19;37.85;;;13.40;;
35418;SDS011;21525;41.240;16.500;2023-09-19T06:44:45;32.92;;;13.57;;
35418;SDS011;21525;41.240;16.500;2023-09-19T06:47:10;33.55;;;12.02;;
35418;SDS011;21525;41.240;16.500;2023-09-19T06:49:36;34.72;;;14.75;;
35418;SDS011;21525;41.240;16.500;2023-09-19T06:52:02;32.80;;;13.60;;
35418;SDS011;21525;41.240;16.500;2023-09-19T06:54:28;32.67;;;13.05;;
35418;SDS011;21525;41.240;16.500;2023-09-19T06:56:59;30.02;;;11.20;;
35418;SDS011;21525;41.240;16.500;2023-09-19T06:59:25;27.38;;;12.00;;
35418;SDS011;21525;41.240;16.500;2023-09-19T07:01:51;30.00;;;10.85;;
35418;SDS011;21525;41.240;16.500;2023-09-19T07:04:16;30.65;;;11.25;;
35418;SDS011;21525;41.240;16.500;2023-09-19T07:06:49;32.92;;;10.80;;
35418;SDS011;21525;41.240;16.500;2023-09-19T07:09:18;31.08;;;11.75;;
35418;SDS011;21525;41.240;16.500;2023-09-19T07:11:45;24.88;;;13.52;;
35418;SDS011;21525;41.240;16.500;2023-09-19T07:14:11;33.50;;;10.95;;
35418;SDS011;21525;41.240;16.500;2023-09-19T07:16:37;23.27;;;11.05;;
35418;SDS011;21525;41.240;16.500;2023-09-19T07:19:05;36.33;;;11.90;;
35418;SDS011;21525;41.240;16.500;2023-09-19T07:21:31;32.85;;;11.10;;
35418;SDS011;21525;41.240;16.500;2023-09-19T07:24:01;26.70;;;11.60;;
35418;SDS011;21525;41.240;16.500;2023-09-19T07:26:28;20.50;;;9.68;;
35418;SDS011;21525;41.240;16.500;2023-09-19T07:28:54;26.27;;;9.95;;
35418;SDS011;21525;41.240;16.500;2023-09-19T07:31:21;25.52;;;10.52;;
35418;SDS011;21525;41.240;16.500;2023-09-19T07:33:48;21.95;;;9.93;;
35418;SDS011;21525;41.240;16.500;2023-09-19T07:36:14;31.65;;;10.00;;
35418;SDS011;21525;41.240;16.500;2023-09-19T07:38:40;24.98;;;9.85;;
35418;SDS011;21525;41.240;16.500;2023-09-19T07:41:07;30.05;;;9.90;;
35418;SDS011;21525;41.240;16.500;2023-09-19T07:43:34;24.67;;;10.55;;
35418;SDS011;21525;41.240;16.500;2023-09-19T07:46:04;27.15;;;9.93;;
35418;SDS011;21525;41.240;16.500;2023-09-19T07:48:33;24.25;;;8.88;;
35418;SDS011;21525;41.240;16.500;2023-09-19T07:51:03;22.67;;;9.80;;
35418;SDS011;21525;41.240;16.500;2023-09-19T07:53:29;32.00;;;9.40;;
35418;SDS011;21525;41.240;16.500;2023-09-19T07:56:02;27.13;;;8.38;;
35418;SDS011;21525;41.240;16.500;2023-09-19T07:58:29;20.98;;;7.03;;
35418;SDS011;21525;41.240;16.500;2023-09-19T08:00:55;18.80;;;7.60;;
35418;SDS011;21525;41.240;16.500;2023-09-19T08:03:20;22.67;;;7.25;;
35418;SDS011;21525;41.240;16.500;2023-09-19T08:05:46;25.05;;;6.32;;
35418;SDS011;21525;41.240;16.500;2023-09-19T08:08:13;28.65;;;7.63;;
35418;SDS011;21525;41.240;16.500;2023-09-19T08:10:40;17.90;;;6.90;;
35418;SDS011;21525;41.240;16.500;2023-09-19T08:13:07;23.10;;;7.63;;
35418;SDS011;21525;41.240;16.500;2023-09-19T08:15:42;25.55;;;7.07;;
35418;SDS011;21525;41.240;16.500;2023-09-19T08:18:09;22.63;;;7.65;;
35418;SDS011;21525;41.240;16.500;2023-09-19T08:20:38;26.38;;;8.15;;
35418;SDS011;21525;41.240;16.500;2023-09-19T08:23:04;21.00;;;7.65;;
35418;SDS011;21525;41.240;16.500;2023-09-19T08:25:29;19.42;;;7.55;;
35418;SDS011;21525;41.240;16.500;2023-09-19T08:27:55;17.52;;;7.53;;
35418;SDS011;21525;41.240;16.500;2023-09-19T08:30:25;23.98;;;7.85;;
35418;SDS011;21525;41.240;16.500;2023-09-19T08:32:59;18.13;;;7.03;;
35418;SDS011;21525;41.240;16.500;2023-09-19T08:35:26;19.85;;;6.88;;
35418;SDS011;21525;41.240;16.500;2023-09-19T08:37:52;19.10;;;6.80;;
35418;SDS011;21525;41.240;16.500;2023-09-19T08:40:18;18.70;;;7.90;;
35418;SDS011;21525;41.240;16.500;2023-09-19T08:42:47;25.25;;;7.40;;
35418;SDS011;21525;41.240;16.500;2023-09-19T08:45:14;29.48;;;9.02;;
35418;SDS011;21525;41.240;16.500;2023-09-19T08:47:41;21.02;;;9.32;;
35418;SDS011;21525;41.240;16.500;2023-09-19T08:50:19;21.95;;;9.10;;
35418;SDS011;21525;41.240;16.500;2023-09-19T08:53:00;23.00;;;7.50;;
35418;SDS011;21525;41.240;16.500;2023-09-19T08:55:27;23.58;;;9.52;;
35418;SDS011;21525;41.240;16.500;2023-09-19T08:58:28;26.80;;;8.95;;
35418;SDS011;21525;41.240;16.500;2023-09-19T09:00:47;23.55;;;8.45;;
35418;SDS011;21525;41.240;16.500;2023-09-19T09:03:14;19.90;;;7.35;;
35418;SDS011;21525;41.240;16.500;2023-09-19T09:05:44;21.55;;;6.93;;
35418;SDS011;21525;41.240;16.500;2023-09-19T09:08:12;20.23;;;6.28;;
35418;SDS011;21525;41.240;16.500;2023-09-19T09:10:40;20.10;;;7.57;;
35418;SDS011;21525;41.240;16.500;2023-09-19T09:13:06;17.27;;;6.53;;
35418;SDS011;21525;41.240;16.500;2023-09-19T09:15:34;15.88;;;6.88;;
35418;SDS011;21525;41.240;16.500;2023-09-19T09:18:01;22.45;;;7.32;;
35418;SDS011;21525;41.240;16.500;2023-09-19T09:20:28;19.08;;;5.90;;
35418;SDS011;21525;41.240;16.500;2023-09-19T09:22:54;18.40;;;6.05;;
35418;SDS011;21525;41.240;16.500;2023-09-19T09:25:23;20.80;;;6.88;;
35418;SDS011;21525;41.240;16.500;2023-09-19T09:28:13;15.02;;;6.65;;
35418;SDS011;21525;41.240;16.500;2023-09-19T09:30:45;20.38;;;6.28;;
35418;SDS011;21525;41.240;16.500;2023-09-19T09:33:12;20.95;;;6.55;;
35418;SDS011;21525;41.240;16.500;2023-09-19T09:35:55;15.43;;;5.32;;
35418;SDS011;21525;41.240;16.500;2023-09-19T09:38:46;13.25;;;5.03;;
35418;SDS011;21525;41.240;16.500;2023-09-19T09:41:15;18.15;;;6.03;;
35418;SDS011;21525;41.240;16.500;2023-09-19T09:43:52;17.20;;;5.78;;
35418;SDS011;21525;41.240;16.500;2023-09-19T09:46:20;12.63;;;5.25;;
35418;SDS011;21525;41.240;16.500;2023-09-19T09:48:57;15.98;;;5.22;;
35418;SDS011;21525;41.240;16.500;2023-09-19T09:51:48;20.83;;;6.47;;
35418;SDS011;21525;41.240;16.500;2023-09-19T09:54:26;16.00;;;6.05;;
35418;SDS011;21525;41.240;16.500;2023-09-19T09:57:09;18.90;;;6.55;;
35418;SDS011;21525;41.240;16.500;2023-09-19T10:02:15;22.35;;;5.60;;
35418;SDS011;21525;41.240;16.500;2023-09-19T10:04:55;15.95;;;6.50;;
35418;SDS011;21525;41.240;16.500;2023-09-19T10:07:32;19.30;;;6.15;;
35418;SDS011;21525;41.240;16.500;2023-09-19T10:09:59;19.52;;;6.10;;
35418;SDS011;21525;41.240;16.500;2023-09-19T10:12:31;16.83;;;6.60;;
35418;SDS011;21525;41.240;16.500;2023-09-19T10:15:00;15.60;;;6.28;;
35418;SDS011;21525;41.240;16.500;2023-09-19T10:19:56;19.05;;;6.45;;
35418;SDS011;21525;41.240;16.500;2023-09-19T10:22:23;21.20;;;6.80;;
35418;SDS011;21525;41.240;16.500;2023-09-19T10:24:53;17.60;;;6.13;;
35418;SDS011;21525;41.240;16.500;2023-09-19T10:27:21;18.02;;;6.20;;
35418;SDS011;21525;41.240;16.500;2023-09-19T10:29:50;20.88;;;6.43;;
35418;SDS011;21525;41.240;16.500;2023-09-19T10:32:21;23.55;;;6.80;;
35418;SDS011;21525;41.240;16.500;2023-09-19T10:34:49;16.50;;;5.45;;
35418;SDS011;21525;41.240;16.500;2023-09-19T10:37:16;15.40;;;6.00;;
35418;SDS011;21525;41.240;16.500;2023-09-19T10:39:46;19.90;;;5.97;;
35418;SDS011;21525;41.240;16.500;2023-09-19T10:42:14;16.52;;;6.13;;
35418;SDS011;21525;41.240;16.500;2023-09-19T10:44:45;15.65;;;6.28;;
35418;SDS011;21525;41.240;16.500;2023-09-19T10:47:14;23.08;;;6.60;;
35418;SDS011;21525;41.240;16.500;2023-09-19T10:49:44;18.38;;;6.82;;
35418;SDS011;21525;41.240;16.500;2023-09-19T10:52:14;20.05;;;6.07;;
35418;SDS011;21525;41.240;16.500;2023-09-19T10:54:49;18.23;;;6.45;;
35418;SDS011;21525;41.240;16.500;2023-09-19T10:57:21;15.23;;;5.65;;
35418;SDS011;21525;41.240;16.500;2023-09-19T11:00:06;20.90;;;6.20;;
35418;SDS011;21525;41.240;16.500;2023-09-19T11:05:44;16.58;;;5.53;;
35418;SDS011;21525;41.240;16.500;2023-09-19T11:08:26;18.85;;;7.00;;
35418;SDS011;21525;41.240;16.500;2023-09-19T11:10:52;16.13;;;5.20;;
35418;SDS011;21525;41.240;16.500;2023-09-19T11:13:26;18.95;;;6.68;;
35418;SDS011;21525;41.240;16.500;2023-09-19T11:26:48;12.82;;;5.75;;
35418;SDS011;21525;41.240;16.500;2023-09-19T11:29:47;17.90;;;5.70;;
35418;SDS011;21525;41.240;16.500;2023-09-19T11:32:07;16.55;;;5.85;;
35418;SDS011;21525;41.240;16.500;2023-09-19T11:39:37;19.52;;;5.47;;
35418;SDS011;21525;41.240;16.500;2023-09-19T11:45:06;14.50;;;5.97;;
35418;SDS011;21525;41.240;16.500;2023-09-19T11:47:32;16.83;;;5.78;;
35418;SDS011;21525;41.240;16.500;2023-09-19T11:52:27;17.20;;;5.10;;
35418;SDS011;21525;41.240;16.500;2023-09-19T11:55:00;16.17;;;5.05;;
35418;SDS011;21525;41.240;16.500;2023-09-19T11:57:27;18.10;;;5.40;;
35418;SDS011;21525;41.240;16.500;2023-09-19T12:02:42;14.35;;;5.00;;
35418;SDS011;21525;41.240;16.500;2023-09-19T12:05:12;20.55;;;5.32;;
35418;SDS011;21525;41.240;16.500;2023-09-19T12:07:43;15.02;;;6.03;;
35418;SDS011;21525;41.240;16.500;2023-09-19T12:10:13;16.02;;;5.38;;
35418;SDS011;21525;41.240;16.500;2023-09-19T12:12:46;17.90;;;5.40;;
35418;SDS011;21525;41.240;16.500;2023-09-19T12:15:14;11.48;;;4.93;;
35418;SDS011;21525;41.240;16.500;2023-09-19T12:17:41;15.48;;;5.55;;
35418;SDS011;21525;41.240;16.500;2023-09-19T12:20:08;14.48;;;5.68;;
35418;SDS011;21525;41.240;16.500;2023-09-19T12:22:39;21.58;;;6.07;;
35418;SDS011;21525;41.240;16.500;2023-09-19T12:25:09;17.27;;;5.32;;
35418;SDS011;21525;41.240;16.500;2023-09-19T12:28:11;15.38;;;6.03;;
35418;SDS011;21525;41.240;16.500;2023-09-19T12:30:37;18.70;;;5.78;;
35418;SDS011;21525;41.240;16.500;2023-09-19T12:33:27;71.80;;;20.75;;
35418;SDS011;21525;41.240;16.500;2023-09-19T12:35:53;112.20;;;34.88;;
35418;SDS011;21525;41.240;16.500;2023-09-19T12:38:24;12.32;;;5.78;;
35418;SDS011;21525;41.240;16.500;2023-09-19T12:40:50;11.98;;;5.40;;
35418;SDS011;21525;41.240;16.500;2023-09-19T12:43:17;12.82;;;5.85;;
35418;SDS011;21525;41.240;16.500;2023-09-19T12:45:43;21.00;;;7.10;;
35418;SDS011;21525;41.240;16.500;2023-09-19T12:48:25;14.27;;;6.00;;
35418;SDS011;21525;41.240;16.500;2023-09-19T12:53:34;17.58;;;5.93;;
35418;SDS011;21525;41.240;16.500;2023-09-19T12:56:06;13.70;;;5.80;;
35418;SDS011;21525;41.240;16.500;2023-09-19T12:58:32;20.75;;;5.72;;
35418;SDS011;21525;41.240;16.500;2023-09-19T13:00:59;14.43;;;4.95;;
35418;SDS011;21525;41.240;16.500;2023-09-19T13:03:25;12.43;;;5.03;;
35418;SDS011;21525;41.240;16.500;2023-09-19T13:05:54;17.38;;;5.50;;
35418;SDS011;21525;41.240;16.500;2023-09-19T13:08:24;16.35;;;5.18;;
35418;SDS011;21525;41.240;16.500;2023-09-19T13:13:32;17.05;;;5.30;;
35418;SDS011;21525;41.240;16.500;2023-09-19T13:15:59;16.40;;;5.63;;
35418;SDS011;21525;41.240;16.500;2023-09-19T13:18:27;16.67;;;5.05;;
35418;SDS011;21525;41.240;16.500;2023-09-19T13:21:05;24.40;;;5.85;;
35418;SDS011;21525;41.240;16.500;2023-09-19T13:23:38;18.13;;;6.00;;
35418;SDS011;21525;41.240;16.500;2023-09-19T13:26:03;18.27;;;6.05;;
35418;SDS011;21525;41.240;16.500;2023-09-19T13:28:33;16.83;;;6.00;;
35418;SDS011;21525;41.240;16.500;2023-09-19T13:30:59;19.13;;;5.32;;
35418;SDS011;21525;41.240;16.500;2023-09-19T13:33:26;15.23;;;5.57;;
35418;SDS011;21525;41.240;16.500;2023-09-19T13:35:53;15.73;;;5.35;;
35418;SDS011;21525;41.240;16.500;2023-09-19T13:38:19;17.98;;;5.95;;
35418;SDS011;21525;41.240;16.500;2023-09-19T13:40:47;16.70;;;5.88;;
35418;SDS011;21525;41.240;16.500;2023-09-19T13:43:13;19.83;;;6.10;;
35418;SDS011;21525;41.240;16.500;2023-09-19T13:45:40;12.68;;;5.68;;
35418;SDS011;21525;41.240;16.500;2023-09-19T13:48:09;16.85;;;6.47;;
35418;SDS011;21525;41.240;16.500;2023-09-19T13:50:36;21.17;;;6.25;;
35418;SDS011;21525;41.240;16.500;2023-09-19T13:53:10;16.00;;;5.70;;
35418;SDS011;21525;41.240;16.500;2023-09-19T13:55:37;16.52;;;6.25;;
35418;SDS011;21525;41.240;16.500;2023-09-19T13:58:03;17.90;;;6.30;;
35418;SDS011;21525;41.240;16.500;2023-09-19T14:00:31;16.15;;;5.03;;
35418;SDS011;21525;41.240;16.500;2023-09-19T14:03:00;20.23;;;6.60;;
35418;SDS011;21525;41.240;16.500;2023-09-19T14:05:26;19.92;;;5.82;;
35418;SDS011;21525;41.240;16.500;2023-09-19T14:07:53;17.00;;;5.32;;
35418;SDS011;21525;41.240;16.500;2023-09-19T14:10:24;13.80;;;5.78;;
35418;SDS011;21525;41.240;16.500;2023-09-19T14:12:55;15.27;;;5.45;;
35418;SDS011;21525;41.240;16.500;2023-09-19T14:15:23;18.88;;;6.38;;
35418;SDS011;21525;41.240;16.500;2023-09-19T14:17:57;21.58;;;5.35;;
35418;SDS011;21525;41.240;16.500;2023-09-19T14:20:24;13.73;;;5.32;;
35418;SDS011;21525;41.240;16.500;2023-09-19T14:22:52;14.57;;;5.13;;
35418;SDS011;21525;41.240;16.500;2023-09-19T14:25:19;16.38;;;5.63;;
35418;SDS011;21525;41.240;16.500;2023-09-19T14:27:46;15.27;;;5.30;;
35418;SDS011;21525;41.240;16.500;2023-09-19T14:32:39;20.13;;;5.82;;
35418;SDS011;21525;41.240;16.500;2023-09-19T14:35:05;19.52;;;5.93;;
35418;SDS011;21525;41.240;16.500;2023-09-19T14:37:32;19.43;;;6.10;;
35418;SDS011;21525;41.240;16.500;2023-09-19T14:39:58;23.85;;;6.35;;
35418;SDS011;21525;41.240;16.500;2023-09-19T14:42:24;15.77;;;5.03;;
35418;SDS011;21525;41.240;16.500;2023-09-19T14:44:50;14.15;;;5.35;;
35418;SDS011;21525;41.240;16.500;2023-09-19T14:47:16;17.23;;;5.32;;
35418;SDS011;21525;41.240;16.500;2023-09-19T14:49:42;17.30;;;5.85;;
35418;SDS011;21525;41.240;16.500;2023-09-19T14:52:08;16.40;;;5.03;;
35418;SDS011;21525;41.240;16.500;2023-09-19T14:54:35;15.48;;;5.82;;
35418;SDS011;21525;41.240;16.500;2023-09-19T14:57:06;13.38;;;5.22;;
35418;SDS011;21525;41.240;16.500;2023-09-19T14:59:34;13.68;;;4.25;;
35418;SDS011;21525;41.240;16.500;2023-09-19T15:02:03;19.77;;;5.40;;
35418;SDS011;21525;41.240;16.500;2023-09-19T15:04:30;15.95;;;5.70;;
35418;SDS011;21525;41.240;16.500;2023-09-19T15:06:56;10.88;;;5.00;;
35418;SDS011;21525;41.240;16.500;2023-09-19T15:09:22;16.42;;;5.65;;
35418;SDS011;21525;41.240;16.500;2023-09-19T15:11:54;16.75;;;5.60;;
35418;SDS011;21525;41.240;16.500;2023-09-19T15:14:21;14.98;;;5.40;;
35418;SDS011;21525;41.240;16.500;2023-09-19T15:16:48;16.30;;;5.10;;
35418;SDS011;21525;41.240;16.500;2023-09-19T15:19:14;16.05;;;5.30;;
35418;SDS011;21525;41.240;16.500;2023-09-19T15:21:40;11.23;;;5.13;;
35418;SDS011;21525;41.240;16.500;2023-09-19T15:24:07;13.80;;;5.38;;
35418;SDS011;21525;41.240;16.500;2023-09-19T15:26:35;15.07;;;5.53;;